sensor_id;sensor_type;location;lat;lon;timestamp;P1;durP1;ratioP1;P2;durP2;ratioP2
21890;SDS011;11110;52.386;16.940;2022-09-20T00:01:29;4.20;;;2.00;;
21890;SDS011;11110;52.386;16.940;2022-09-20T00:04:00;3.90;;;1.73;;
21890;SDS011;11110;52.386;16.940;2022-09-20T00:06:32;2.37;;;1.90;;
21890;SDS011;11110;52.386;16.940;2022-09-20T00:09:02;1.43;;;1.30;;
21890;SDS011;11110;52.386;16.940;2022-09-20T00:11:31;3.17;;;1.70;;
21890;SDS011;11110;52.386;16.940;2022-09-20T00:14:01;3.77;;;1.80;;
21890;SDS011;11110;52.386;16.940;2022-09-20T00:16:32;3.00;;;1.70;;
21890;SDS011;11110;52.386;16.940;2022-09-20T00:19:05;2.47;;;1.50;;
21890;SDS011;11110;52.386;16.940;2022-09-20T00:21:34;2.97;;;1.77;;
21890;SDS011;11110;52.386;16.940;2022-09-20T00:24:04;2.50;;;1.63;;
21890;SDS011;11110;52.386;16.940;2022-09-20T00:26:32;3.30;;;2.13;;
21890;SDS011;11110;52.386;16.940;2022-09-20T00:29:01;2.17;;;1.90;;
21890;SDS011;11110;52.386;16.940;2022-09-20T00:31:29;4.73;;;1.90;;
21890;SDS011;11110;52.386;16.940;2022-09-20T00:33:58;2.43;;;1.90;;
21890;SDS011;11110;52.386;16.940;2022-09-20T00:36:45;3.00;;;1.80;;
21890;SDS011;11110;52.386;16.940;2022-09-20T00:39:14;4.63;;;2.23;;
21890;SDS011;11110;52.386;16.940;2022-09-20T00:41:42;3.53;;;2.50;;
21890;SDS011;11110;52.386;16.940;2022-09-20T00:47:11;5.23;;;2.60;;
21890;SDS011;11110;52.386;16.940;2022-09-20T00:49:46;5.03;;;2.40;;
21890;SDS011;11110;52.386;16.940;2022-09-20T00:52:18;4.03;;;2.53;;
21890;SDS011;11110;52.386;16.940;2022-09-20T00:54:47;3.83;;;2.40;;
21890;SDS011;11110;52.386;16.940;2022-09-20T00:57:15;4.23;;;2.23;;
21890;SDS011;11110;52.386;16.940;2022-09-20T00:59:44;4.87;;;2.77;;
21890;SDS011;11110;52.386;16.940;2022-09-20T01:02:15;3.90;;;2.30;;
21890;SDS011;11110;52.386;16.940;2022-09-20T01:04:48;4.17;;;2.40;;
21890;SDS011;11110;52.386;16.940;2022-09-20T01:07:19;4.70;;;2.50;;
21890;SDS011;11110;52.386;16.940;2022-09-20T01:09:49;2.67;;;2.40;;
21890;SDS011;11110;52.386;16.940;2022-09-20T01:12:19;4.20;;;2.20;;
21890;SDS011;11110;52.386;16.940;2022-09-20T01:14:50;3.43;;;1.87;;
21890;SDS011;11110;52.386;16.940;2022-09-20T01:17:21;3.47;;;1.97;;
21890;SDS011;11110;52.386;16.940;2022-09-20T01:19:55;2.10;;;1.87;;
21890;SDS011;11110;52.386;16.940;2022-09-20T01:22:34;2.03;;;1.77;;
21890;SDS011;11110;52.386;16.940;2022-09-20T01:25:08;2.63;;;2.17;;
21890;SDS011;11110;52.386;16.940;2022-09-20T01:27:44;3.40;;;2.00;;
21890;SDS011;11110;52.386;16.940;2022-09-20T01:30:14;3.57;;;1.90;;
21890;SDS011;11110;52.386;16.940;2022-09-20T01:32:48;2.37;;;1.93;;
21890;SDS011;11110;52.386;16.940;2022-09-20T01:35:23;2.60;;;2.37;;
21890;SDS011;11110;52.386;16.940;2022-09-20T01:38:06;3.93;;;2.70;;
21890;SDS011;11110;52.386;16.940;2022-09-20T01:40:51;2.93;;;1.87;;
21890;SDS011;11110;52.386;16.940;2022-09-20T01:43:33;2.50;;;2.07;;
21890;SDS011;11110;52.386;16.940;2022-09-20T01:46:07;2.53;;;1.70;;
21890;SDS011;11110;52.386;16.940;2022-09-20T01:48:48;2.00;;;1.80;;
21890;SDS011;11110;52.386;16.940;2022-09-20T01:51:32;2.60;;;1.87;;
21890;SDS011;11110;52.386;16.940;2022-09-20T01:57:50;3.00;;;2.03;;
21890;SDS011;11110;52.386;16.940;2022-09-20T02:00:57;3.03;;;2.27;;
21890;SDS011;11110;52.386;16.940;2022-09-20T02:04:09;3.50;;;2.03;;
21890;SDS011;11110;52.386;16.940;2022-09-20T02:06:53;2.97;;;2.27;;
21890;SDS011;11110;52.386;16.940;2022-09-20T02:09:48;2.20;;;1.70;;
21890;SDS011;11110;52.386;16.940;2022-09-20T02:12:37;2.60;;;2.30;;
21890;SDS011;11110;52.386;16.940;2022-09-20T02:15:15;2.37;;;2.10;;
21890;SDS011;11110;52.386;16.940;2022-09-20T02:18:00;2.50;;;2.30;;
21890;SDS011;11110;52.386;16.940;2022-09-20T02:20:37;2.93;;;2.40;;
21890;SDS011;11110;52.386;16.940;2022-09-20T02:23:19;3.13;;;2.10;;
21890;SDS011;11110;52.386;16.940;2022-09-20T02:26:02;2.67;;;2.03;;
21890;SDS011;11110;52.386;16.940;2022-09-20T02:28:49;2.17;;;1.83;;
21890;SDS011;11110;52.386;16.940;2022-09-20T02:31:23;3.53;;;1.60;;
21890;SDS011;11110;52.386;16.940;2022-09-20T02:34:06;2.87;;;1.80;;
21890;SDS011;11110;52.386;16.940;2022-09-20T02:36:52;2.50;;;1.90;;
21890;SDS011;11110;52.386;16.940;2022-09-20T02:39:35;4.13;;;1.90;;
21890;SDS011;11110;52.386;16.940;2022-09-20T02:42:11;3.43;;;1.90;;
21890;SDS011;11110;52.386;16.940;2022-09-20T02:44:51;2.00;;;1.73;;
21890;SDS011;11110;52.386;16.940;2022-09-20T02:47:26;2.70;;;1.63;;
21890;SDS011;11110;52.386;16.940;2022-09-20T02:50:10;1.80;;;1.70;;
21890;SDS011;11110;52.386;16.940;2022-09-20T02:52:53;3.67;;;1.90;;
21890;SDS011;11110;52.386;16.940;2022-09-20T02:55:31;3.53;;;2.50;;
21890;SDS011;11110;52.386;16.940;2022-09-20T02:58:10;3.87;;;2.30;;
21890;SDS011;11110;52.386;16.940;2022-09-20T03:00:51;4.27;;;2.70;;
21890;SDS011;11110;52.386;16.940;2022-09-20T03:03:29;3.27;;;2.67;;
21890;SDS011;11110;52.386;16.940;2022-09-20T03:06:07;1.70;;;1.60;;
21890;SDS011;11110;52.386;16.940;2022-09-20T03:08:41;1.80;;;1.70;;
21890;SDS011;11110;52.386;16.940;2022-09-20T03:11:18;2.93;;;1.93;;
21890;SDS011;11110;52.386;16.940;2022-09-20T03:13:58;2.47;;;1.80;;
21890;SDS011;11110;52.386;16.940;2022-09-20T03:16:39;3.27;;;2.63;;
21890;SDS011;11110;52.386;16.940;2022-09-20T03:19:32;2.20;;;1.90;;
21890;SDS011;11110;52.386;16.940;2022-09-20T03:22:15;6.77;;;2.00;;
21890;SDS011;11110;52.386;16.940;2022-09-20T03:24:58;2.83;;;1.97;;
21890;SDS011;11110;52.386;16.940;2022-09-20T03:27:41;1.50;;;1.40;;
21890;SDS011;11110;52.386;16.940;2022-09-20T03:30:19;2.53;;;2.30;;
21890;SDS011;11110;52.386;16.940;2022-09-20T03:33:00;2.03;;;1.63;;
21890;SDS011;11110;52.386;16.940;2022-09-20T03:35:38;3.13;;;1.60;;
21890;SDS011;11110;52.386;16.940;2022-09-20T03:38:17;6.30;;;3.67;;
21890;SDS011;11110;52.386;16.940;2022-09-20T03:41:03;3.83;;;2.50;;
21890;SDS011;11110;52.386;16.940;2022-09-20T03:43:48;2.70;;;1.87;;
21890;SDS011;11110;52.386;16.940;2022-09-20T03:46:35;4.97;;;1.90;;
21890;SDS011;11110;52.386;16.940;2022-09-20T03:49:22;3.40;;;2.63;;
21890;SDS011;11110;52.386;16.940;2022-09-20T03:52:10;3.27;;;2.27;;
21890;SDS011;11110;52.386;16.940;2022-09-20T03:55:03;2.27;;;1.90;;
21890;SDS011;11110;52.386;16.940;2022-09-20T03:57:56;2.20;;;1.63;;
21890;SDS011;11110;52.386;16.940;2022-09-20T04:00:51;3.40;;;2.00;;
21890;SDS011;11110;52.386;16.940;2022-09-20T04:03:42;1.47;;;1.37;;
21890;SDS011;11110;52.386;16.940;2022-09-20T04:06:28;1.90;;;1.20;;
21890;SDS011;11110;52.386;16.940;2022-09-20T04:09:24;2.53;;;1.77;;
21890;SDS011;11110;52.386;16.940;2022-09-20T04:12:19;2.87;;;1.67;;
21890;SDS011;11110;52.386;16.940;2022-09-20T04:14:56;2.97;;;1.20;;
21890;SDS011;11110;52.386;16.940;2022-09-20T04:17:36;1.97;;;1.53;;
21890;SDS011;11110;52.386;16.940;2022-09-20T04:20:12;2.00;;;1.63;;
21890;SDS011;11110;52.386;16.940;2022-09-20T04:22:46;1.70;;;1.60;;
21890;SDS011;11110;52.386;16.940;2022-09-20T04:25:19;2.00;;;1.77;;
21890;SDS011;11110;52.386;16.940;2022-09-20T04:27:52;6.17;;;4.83;;
21890;SDS011;11110;52.386;16.940;2022-09-20T04:30:25;3.40;;;2.80;;
21890;SDS011;11110;52.386;16.940;2022-09-20T04:32:57;3.20;;;2.53;;
21890;SDS011;11110;52.386;16.940;2022-09-20T04:35:34;3.57;;;2.37;;
21890;SDS011;11110;52.386;16.940;2022-09-20T04:38:26;4.77;;;2.97;;
21890;SDS011;11110;52.386;16.940;2022-09-20T04:41:07;6.40;;;3.37;;
21890;SDS011;11110;52.386;16.940;2022-09-20T04:56:14;2.13;;;1.90;;
21890;SDS011;11110;52.386;16.940;2022-09-20T04:58:58;4.03;;;2.03;;
21890;SDS011;11110;52.386;16.940;2022-09-20T05:01:58;2.03;;;1.93;;
21890;SDS011;11110;52.386;16.940;2022-09-20T05:04:52;3.27;;;1.77;;
21890;SDS011;11110;52.386;16.940;2022-09-20T05:14:21;2.33;;;2.13;;
21890;SDS011;11110;52.386;16.940;2022-09-20T05:17:09;5.43;;;2.40;;
21890;SDS011;11110;52.386;16.940;2022-09-20T05:19:46;1.70;;;1.60;;
21890;SDS011;11110;52.386;16.940;2022-09-20T05:22:40;3.47;;;2.03;;
21890;SDS011;11110;52.386;16.940;2022-09-20T05:25:46;3.93;;;2.33;;
21890;SDS011;11110;52.386;16.940;2022-09-20T05:28:29;2.80;;;2.10;;
21890;SDS011;11110;52.386;16.940;2022-09-20T05:31:05;2.17;;;2.00;;
21890;SDS011;11110;52.386;16.940;2022-09-20T05:33:42;3.70;;;2.10;;
21890;SDS011;11110;52.386;16.940;2022-09-20T05:36:18;6.37;;;2.33;;
21890;SDS011;11110;52.386;16.940;2022-09-20T05:39:01;4.43;;;2.40;;
21890;SDS011;11110;52.386;16.940;2022-09-20T05:41:41;3.50;;;2.50;;
21890;SDS011;11110;52.386;16.940;2022-09-20T05:44:15;4.03;;;2.50;;
21890;SDS011;11110;52.386;16.940;2022-09-20T05:46:56;3.40;;;2.57;;
21890;SDS011;11110;52.386;16.940;2022-09-20T05:49:37;2.50;;;2.30;;
21890;SDS011;11110;52.386;16.940;2022-09-20T05:52:23;3.47;;;2.80;;
21890;SDS011;11110;52.386;16.940;2022-09-20T05:55:10;3.83;;;2.60;;
21890;SDS011;11110;52.386;16.940;2022-09-20T05:57:54;3.13;;;2.40;;
21890;SDS011;11110;52.386;16.940;2022-09-20T06:00:33;4.73;;;2.23;;
21890;SDS011;11110;52.386;16.940;2022-09-20T06:03:09;3.67;;;2.60;;
21890;SDS011;11110;52.386;16.940;2022-09-20T06:05:48;2.93;;;2.43;;
21890;SDS011;11110;52.386;16.940;2022-09-20T06:08:25;3.60;;;3.00;;
21890;SDS011;11110;52.386;16.940;2022-09-20T06:11:08;2.47;;;2.27;;
21890;SDS011;11110;52.386;16.940;2022-09-20T06:13:52;2.70;;;2.50;;
21890;SDS011;11110;52.386;16.940;2022-09-20T06:16:35;3.87;;;2.60;;
21890;SDS011;11110;52.386;16.940;2022-09-20T06:19:13;2.60;;;2.40;;
21890;SDS011;11110;52.386;16.940;2022-09-20T06:21:50;4.00;;;3.10;;
21890;SDS011;11110;52.386;16.940;2022-09-20T06:24:32;3.30;;;2.73;;
21890;SDS011;11110;52.386;16.940;2022-09-20T06:27:05;3.80;;;3.03;;
21890;SDS011;11110;52.386;16.940;2022-09-20T06:29:38;3.27;;;2.97;;
21890;SDS011;11110;52.386;16.940;2022-09-20T06:32:14;4.23;;;3.40;;
21890;SDS011;11110;52.386;16.940;2022-09-20T06:34:43;3.47;;;3.17;;
21890;SDS011;11110;52.386;16.940;2022-09-20T06:37:17;4.33;;;2.90;;
21890;SDS011;11110;52.386;16.940;2022-09-20T06:40:19;4.13;;;2.83;;
21890;SDS011;11110;52.386;16.940;2022-09-20T06:43:16;8.13;;;3.33;;
21890;SDS011;11110;52.386;16.940;2022-09-20T06:45:45;3.50;;;3.20;;
21890;SDS011;11110;52.386;16.940;2022-09-20T06:48:14;3.67;;;3.37;;
21890;SDS011;11110;52.386;16.940;2022-09-20T06:50:44;3.70;;;3.40;;
21890;SDS011;11110;52.386;16.940;2022-09-20T06:53:15;6.37;;;3.40;;
21890;SDS011;11110;52.386;16.940;2022-09-20T06:55:46;5.33;;;3.57;;
21890;SDS011;11110;52.386;16.940;2022-09-20T06:58:15;4.30;;;3.30;;
21890;SDS011;11110;52.386;16.940;2022-09-20T07:00:44;4.97;;;3.70;;
21890;SDS011;11110;52.386;16.940;2022-09-20T07:03:12;4.17;;;3.60;;
21890;SDS011;11110;52.386;16.940;2022-09-20T07:05:40;5.70;;;3.67;;
21890;SDS011;11110;52.386;16.940;2022-09-20T07:08:09;4.83;;;4.00;;
21890;SDS011;11110;52.386;16.940;2022-09-20T07:10:39;5.07;;;3.70;;
21890;SDS011;11110;52.386;16.940;2022-09-20T07:13:09;5.90;;;3.60;;
21890;SDS011;11110;52.386;16.940;2022-09-20T07:15:39;3.73;;;3.37;;
21890;SDS011;11110;52.386;16.940;2022-09-20T07:18:07;5.53;;;3.80;;
21890;SDS011;11110;52.386;16.940;2022-09-20T07:20:36;4.40;;;3.77;;
21890;SDS011;11110;52.386;16.940;2022-09-20T07:23:04;5.87;;;3.37;;
21890;SDS011;11110;52.386;16.940;2022-09-20T07:25:34;5.70;;;3.23;;
21890;SDS011;11110;52.386;16.940;2022-09-20T07:28:04;4.53;;;3.77;;
21890;SDS011;11110;52.386;16.940;2022-09-20T07:30:33;3.60;;;3.30;;
21890;SDS011;11110;52.386;16.940;2022-09-20T07:33:01;3.83;;;3.23;;
21890;SDS011;11110;52.386;16.940;2022-09-20T07:35:29;3.87;;;3.43;;
21890;SDS011;11110;52.386;16.940;2022-09-20T07:37:58;6.93;;;3.57;;
21890;SDS011;11110;52.386;16.940;2022-09-20T07:40:26;3.60;;;3.27;;
21890;SDS011;11110;52.386;16.940;2022-09-20T07:42:55;4.50;;;3.13;;
21890;SDS011;11110;52.386;16.940;2022-09-20T07:45:24;4.07;;;3.23;;
21890;SDS011;11110;52.386;16.940;2022-09-20T07:47:53;3.90;;;2.80;;
21890;SDS011;11110;52.386;16.940;2022-09-20T07:50:23;5.00;;;3.50;;
21890;SDS011;11110;52.386;16.940;2022-09-20T07:52:54;3.70;;;3.40;;
21890;SDS011;11110;52.386;16.940;2022-09-20T07:55:22;4.57;;;2.97;;
21890;SDS011;11110;52.386;16.940;2022-09-20T07:57:51;3.80;;;3.50;;
21890;SDS011;11110;52.386;16.940;2022-09-20T08:00:19;6.20;;;3.00;;
21890;SDS011;11110;52.386;16.940;2022-09-20T08:02:49;4.80;;;2.73;;
21890;SDS011;11110;52.386;16.940;2022-09-20T08:05:25;3.63;;;2.57;;
21890;SDS011;11110;52.386;16.940;2022-09-20T08:07:54;3.70;;;3.30;;
21890;SDS011;11110;52.386;16.940;2022-09-20T08:10:22;2.80;;;2.20;;
21890;SDS011;11110;52.386;16.940;2022-09-20T08:12:50;3.43;;;2.70;;
21890;SDS011;11110;52.386;16.940;2022-09-20T08:15:39;3.00;;;2.70;;
21890;SDS011;11110;52.386;16.940;2022-09-20T08:18:09;3.53;;;2.63;;
21890;SDS011;11110;52.386;16.940;2022-09-20T08:20:38;6.17;;;2.60;;
21890;SDS011;11110;52.386;16.940;2022-09-20T08:23:07;3.50;;;2.73;;
21890;SDS011;11110;52.386;16.940;2022-09-20T08:25:49;3.03;;;2.27;;
21890;SDS011;11110;52.386;16.940;2022-09-20T08:28:17;3.28;;;2.97;;
21890;SDS011;11110;52.386;16.940;2022-09-20T08:30:46;4.40;;;3.43;;
21890;SDS011;11110;52.386;16.940;2022-09-20T08:33:15;2.73;;;2.53;;
21890;SDS011;11110;52.386;16.940;2022-09-20T08:35:46;3.57;;;2.47;;
21890;SDS011;11110;52.386;16.940;2022-09-20T08:38:16;2.93;;;2.50;;
21890;SDS011;11110;52.386;16.940;2022-09-20T08:41:06;2.03;;;1.87;;
21890;SDS011;11110;52.386;16.940;2022-09-20T08:43:38;2.50;;;2.30;;
21890;SDS011;11110;52.386;16.940;2022-09-20T08:46:12;2.85;;;2.58;;
21890;SDS011;11110;52.386;16.940;2022-09-20T08:48:44;2.83;;;2.42;;
21890;SDS011;11110;52.386;16.940;2022-09-20T08:51:14;2.47;;;2.20;;
21890;SDS011;11110;52.386;16.940;2022-09-20T08:53:49;4.17;;;2.10;;
21890;SDS011;11110;52.386;16.940;2022-09-20T08:56:19;3.42;;;2.10;;
21890;SDS011;11110;52.386;16.940;2022-09-20T08:58:48;4.47;;;2.75;;
21890;SDS011;11110;52.386;16.940;2022-09-20T09:01:20;2.50;;;2.30;;
21890;SDS011;11110;52.386;16.940;2022-09-20T09:03:51;4.20;;;2.50;;
21890;SDS011;11110;52.386;16.940;2022-09-20T09:06:24;3.45;;;2.65;;
21890;SDS011;11110;52.386;16.940;2022-09-20T09:08:52;3.03;;;2.65;;
21890;SDS011;11110;52.386;16.940;2022-09-20T09:11:24;2.47;;;2.25;;
21890;SDS011;11110;52.386;16.940;2022-09-20T09:13:54;2.93;;;2.00;;
21890;SDS011;11110;52.386;16.940;2022-09-20T09:16:27;2.30;;;2.10;;
21890;SDS011;11110;52.386;16.940;2022-09-20T09:22:00;2.47;;;2.07;;
21890;SDS011;11110;52.386;16.940;2022-09-20T09:24:32;2.53;;;2.25;;
21890;SDS011;11110;52.386;16.940;2022-09-20T09:27:07;2.38;;;1.85;;
21890;SDS011;11110;52.386;16.940;2022-09-20T09:29:48;2.70;;;2.30;;
21890;SDS011;11110;52.386;16.940;2022-09-20T09:32:20;2.67;;;1.93;;
21890;SDS011;11110;52.386;16.940;2022-09-20T09:34:51;3.53;;;2.22;;
21890;SDS011;11110;52.386;16.940;2022-09-20T09:37:24;2.17;;;2.03;;
21890;SDS011;11110;52.386;16.940;2022-09-20T09:40:04;2.75;;;1.85;;
21890;SDS011;11110;52.386;16.940;2022-09-20T09:42:35;3.35;;;1.83;;
21890;SDS011;11110;52.386;16.940;2022-09-20T09:45:11;4.60;;;2.30;;
21890;SDS011;11110;52.386;16.940;2022-09-20T09:47:47;4.00;;;2.40;;
21890;SDS011;11110;52.386;16.940;2022-09-20T09:50:21;3.38;;;2.20;;
21890;SDS011;11110;52.386;16.940;2022-09-20T09:52:57;3.28;;;1.83;;
21890;SDS011;11110;52.386;16.940;2022-09-20T09:55:33;3.20;;;2.05;;
21890;SDS011;11110;52.386;16.940;2022-09-20T09:58:13;2.70;;;1.40;;
21890;SDS011;11110;52.386;16.940;2022-09-20T10:00:48;2.65;;;1.50;;
21890;SDS011;11110;52.386;16.940;2022-09-20T10:03:22;2.47;;;1.45;;
21890;SDS011;11110;52.386;16.940;2022-09-20T10:06:08;1.50;;;1.40;;
21890;SDS011;11110;52.386;16.940;2022-09-20T10:08:44;1.45;;;1.35;;
21890;SDS011;11110;52.386;16.940;2022-09-20T10:11:28;1.50;;;1.40;;
21890;SDS011;11110;52.386;16.940;2022-09-20T10:14:09;1.52;;;1.23;;
21890;SDS011;11110;52.386;16.940;2022-09-20T10:16:51;1.00;;;1.00;;
21890;SDS011;11110;52.386;16.940;2022-09-20T10:19:35;0.93;;;0.90;;
21890;SDS011;11110;52.386;16.940;2022-09-20T10:22:19;1.42;;;1.20;;
21890;SDS011;11110;52.386;16.940;2022-09-20T10:25:01;1.35;;;1.10;;
21890;SDS011;11110;52.386;16.940;2022-09-20T10:27:42;1.45;;;1.08;;
21890;SDS011;11110;52.386;16.940;2022-09-20T10:30:19;1.00;;;0.90;;
21890;SDS011;11110;52.386;16.940;2022-09-20T10:32:58;1.45;;;1.00;;
21890;SDS011;11110;52.386;16.940;2022-09-20T10:35:33;0.90;;;0.80;;
21890;SDS011;11110;52.386;16.940;2022-09-20T10:38:14;1.88;;;1.00;;
21890;SDS011;11110;52.386;16.940;2022-09-20T10:46:55;2.13;;;0.90;;
21890;SDS011;11110;52.386;16.940;2022-09-20T10:49:33;2.80;;;0.90;;
21890;SDS011;11110;52.386;16.940;2022-09-20T10:52:07;1.05;;;0.77;;
21890;SDS011;11110;52.386;16.940;2022-09-20T10:54:48;3.35;;;1.80;;
21890;SDS011;11110;52.386;16.940;2022-09-20T10:57:50;1.73;;;1.15;;
21890;SDS011;11110;52.386;16.940;2022-09-20T11:00:45;1.60;;;0.98;;
21890;SDS011;11110;52.386;16.940;2022-09-20T11:03:25;2.05;;;1.05;;
21890;SDS011;11110;52.386;16.940;2022-09-20T11:06:19;1.17;;;1.08;;
21890;SDS011;11110;52.386;16.940;2022-09-20T11:08:53;2.20;;;1.30;;
21890;SDS011;11110;52.386;16.940;2022-09-20T11:11:27;1.33;;;1.10;;
21890;SDS011;11110;52.386;16.940;2022-09-20T11:14:02;1.33;;;1.23;;
21890;SDS011;11110;52.386;16.940;2022-09-20T11:16:38;0.90;;;0.90;;
21890;SDS011;11110;52.386;16.940;2022-09-20T11:19:13;3.78;;;1.27;;
21890;SDS011;11110;52.386;16.940;2022-09-20T11:21:51;1.33;;;1.00;;
21890;SDS011;11110;52.386;16.940;2022-09-20T11:24:25;1.10;;;0.90;;
21890;SDS011;11110;52.386;16.940;2022-09-20T11:27:00;5.35;;;3.00;;
21890;SDS011;11110;52.386;16.940;2022-09-20T11:29:35;2.20;;;1.55;;
21890;SDS011;11110;52.386;16.940;2022-09-20T11:32:09;1.65;;;0.90;;
21890;SDS011;11110;52.386;16.940;2022-09-20T11:34:44;1.17;;;1.08;;
21890;SDS011;11110;52.386;16.940;2022-09-20T11:37:17;2.25;;;1.02;;
21890;SDS011;11110;52.386;16.940;2022-09-20T11:39:50;1.33;;;0.95;;
21890;SDS011;11110;52.386;16.940;2022-09-20T11:42:24;1.17;;;0.90;;
21890;SDS011;11110;52.386;16.940;2022-09-20T11:44:58;1.10;;;1.00;;
21890;SDS011;11110;52.386;16.940;2022-09-20T11:47:28;2.13;;;0.98;;
21890;SDS011;11110;52.386;16.940;2022-09-20T11:50:31;2.03;;;0.85;;
21890;SDS011;11110;52.386;16.940;2022-09-20T11:53:15;0.85;;;0.70;;
21890;SDS011;11110;52.386;16.940;2022-09-20T11:56:03;1.95;;;1.00;;
21890;SDS011;11110;52.386;16.940;2022-09-20T11:58:44;0.80;;;0.70;;
21890;SDS011;11110;52.386;16.940;2022-09-20T12:01:14;1.67;;;0.90;;
21890;SDS011;11110;52.386;16.940;2022-09-20T12:03:56;1.13;;;1.00;;
21890;SDS011;11110;52.386;16.940;2022-09-20T12:06:55;1.60;;;1.00;;
21890;SDS011;11110;52.386;16.940;2022-09-20T12:09:35;1.73;;;0.80;;
21890;SDS011;11110;52.386;16.940;2022-09-20T12:12:13;0.88;;;0.70;;
21890;SDS011;11110;52.386;16.940;2022-09-20T12:14:53;1.00;;;0.80;;
21890;SDS011;11110;52.386;16.940;2022-09-20T12:26:44;3.53;;;1.50;;
21890;SDS011;11110;52.386;16.940;2022-09-20T12:32:31;4.32;;;1.20;;
21890;SDS011;11110;52.386;16.940;2022-09-20T12:41:24;1.90;;;0.82;;
21890;SDS011;11110;52.386;16.940;2022-09-20T12:43:56;1.00;;;1.00;;
21890;SDS011;11110;52.386;16.940;2022-09-20T12:46:31;1.02;;;0.93;;
21890;SDS011;11110;52.386;16.940;2022-09-20T12:49:26;1.08;;;0.60;;
21890;SDS011;11110;52.386;16.940;2022-09-20T12:52:26;0.70;;;0.70;;
21890;SDS011;11110;52.386;16.940;2022-09-20T12:55:29;1.50;;;1.00;;
21890;SDS011;11110;52.386;16.940;2022-09-20T12:58:01;6.28;;;4.05;;
21890;SDS011;11110;52.386;16.940;2022-09-20T13:00:33;1.27;;;1.17;;
21890;SDS011;11110;52.386;16.940;2022-09-20T13:03:19;2.10;;;0.95;;
21890;SDS011;11110;52.386;16.940;2022-09-20T13:06:19;1.48;;;0.75;;
21890;SDS011;11110;52.386;16.940;2022-09-20T13:08:53;1.27;;;1.00;;
21890;SDS011;11110;52.386;16.940;2022-09-20T13:11:33;3.92;;;1.23;;
21890;SDS011;11110;52.386;16.940;2022-09-20T13:14:07;2.42;;;0.80;;
21890;SDS011;11110;52.386;16.940;2022-09-20T13:16:44;3.08;;;0.90;;
21890;SDS011;11110;52.386;16.940;2022-09-20T13:19:15;2.25;;;0.73;;
21890;SDS011;11110;52.386;16.940;2022-09-20T13:21:51;1.55;;;0.70;;
21890;SDS011;11110;52.386;16.940;2022-09-20T13:24:23;2.85;;;1.00;;
21890;SDS011;11110;52.386;16.940;2022-09-20T13:26:53;1.73;;;0.90;;
21890;SDS011;11110;52.386;16.940;2022-09-20T13:29:29;1.20;;;0.60;;
21890;SDS011;11110;52.386;16.940;2022-09-20T13:32:13;1.88;;;0.60;;
21890;SDS011;11110;52.386;16.940;2022-09-20T13:34:42;1.85;;;0.60;;
21890;SDS011;11110;52.386;16.940;2022-09-20T13:37:14;0.95;;;0.90;;
21890;SDS011;11110;52.386;16.940;2022-09-20T13:39:46;0.80;;;0.68;;
21890;SDS011;11110;52.386;16.940;2022-09-20T13:42:20;1.33;;;0.80;;
21890;SDS011;11110;52.386;16.940;2022-09-20T13:44:49;0.52;;;0.40;;
21890;SDS011;11110;52.386;16.940;2022-09-20T13:47:22;1.20;;;0.40;;
21890;SDS011;11110;52.386;16.940;2022-09-20T13:49:52;0.40;;;0.40;;
21890;SDS011;11110;52.386;16.940;2022-09-20T13:52:29;0.40;;;0.40;;
21890;SDS011;11110;52.386;16.940;2022-09-20T13:54:58;0.82;;;0.40;;
21890;SDS011;11110;52.386;16.940;2022-09-20T13:57:27;0.40;;;0.40;;
21890;SDS011;11110;52.386;16.940;2022-09-20T13:59:57;0.38;;;0.38;;
21890;SDS011;11110;52.386;16.940;2022-09-20T14:02:37;2.40;;;0.52;;
21890;SDS011;11110;52.386;16.940;2022-09-20T14:05:05;0.40;;;0.40;;
21890;SDS011;11110;52.386;16.940;2022-09-20T14:07:43;0.30;;;0.30;;
21890;SDS011;11110;52.386;16.940;2022-09-20T14:10:26;2.72;;;0.73;;
21890;SDS011;11110;52.386;16.940;2022-09-20T14:12:57;0.68;;;0.68;;
21890;SDS011;11110;52.386;16.940;2022-09-20T14:15:29;0.47;;;0.47;;
21890;SDS011;11110;52.386;16.940;2022-09-20T14:18:01;0.77;;;0.60;;
21890;SDS011;11110;52.386;16.940;2022-09-20T14:20:30;0.57;;;0.57;;
21890;SDS011;11110;52.386;16.940;2022-09-20T14:23:01;1.50;;;0.88;;
21890;SDS011;11110;52.386;16.940;2022-09-20T14:25:29;1.48;;;0.40;;
21890;SDS011;11110;52.386;16.940;2022-09-20T14:28:06;0.98;;;0.65;;
21890;SDS011;11110;52.386;16.940;2022-09-20T14:30:44;1.45;;;0.80;;
21890;SDS011;11110;52.386;16.940;2022-09-20T14:33:14;1.35;;;1.20;;
21890;SDS011;11110;52.386;16.940;2022-09-20T14:35:47;0.82;;;0.60;;
21890;SDS011;11110;52.386;16.940;2022-09-20T14:38:20;1.58;;;1.00;;
21890;SDS011;11110;52.386;16.940;2022-09-20T14:40:51;0.95;;;0.80;;
21890;SDS011;11110;52.386;16.940;2022-09-20T14:43:24;2.03;;;1.00;;
21890;SDS011;11110;52.386;16.940;2022-09-20T14:45:57;1.05;;;0.60;;
21890;SDS011;11110;52.386;16.940;2022-09-20T14:48:34;0.40;;;0.40;;
21890;SDS011;11110;52.386;16.940;2022-09-20T14:51:08;0.47;;;0.40;;
21890;SDS011;11110;52.386;16.940;2022-09-20T14:53:49;0.90;;;0.57;;
21890;SDS011;11110;52.386;16.940;2022-09-20T14:56:26;2.38;;;0.80;;
21890;SDS011;11110;52.386;16.940;2022-09-20T14:59:01;0.65;;;0.65;;
21890;SDS011;11110;52.386;16.940;2022-09-20T15:01:31;0.47;;;0.47;;
21890;SDS011;11110;52.386;16.940;2022-09-20T15:04:04;0.38;;;0.38;;
21890;SDS011;11110;52.386;16.940;2022-09-20T15:06:35;0.57;;;0.50;;
21890;SDS011;11110;52.386;16.940;2022-09-20T15:09:05;2.10;;;0.85;;
21890;SDS011;11110;52.386;16.940;2022-09-20T15:11:36;0.85;;;0.60;;
21890;SDS011;11110;52.386;16.940;2022-09-20T15:14:04;2.28;;;0.63;;
21890;SDS011;11110;52.386;16.940;2022-09-20T15:16:33;0.63;;;0.52;;
21890;SDS011;11110;52.386;16.940;2022-09-20T15:19:02;0.43;;;0.40;;
21890;SDS011;11110;52.386;16.940;2022-09-20T15:21:31;0.85;;;0.50;;
21890;SDS011;11110;52.386;16.940;2022-09-20T15:24:00;0.40;;;0.40;;
21890;SDS011;11110;52.386;16.940;2022-09-20T15:26:30;1.15;;;0.50;;
21890;SDS011;11110;52.386;16.940;2022-09-20T15:28:58;0.63;;;0.63;;
21890;SDS011;11110;52.386;16.940;2022-09-20T15:31:26;0.60;;;0.57;;
21890;SDS011;11110;52.386;16.940;2022-09-20T15:33:55;0.60;;;0.60;;
21890;SDS011;11110;52.386;16.940;2022-09-20T15:36:23;1.38;;;0.63;;
21890;SDS011;11110;52.386;16.940;2022-09-20T15:38:57;1.10;;;0.60;;
21890;SDS011;11110;52.386;16.940;2022-09-20T15:41:25;0.70;;;0.70;;
21890;SDS011;11110;52.386;16.940;2022-09-20T15:43:58;1.42;;;0.47;;
21890;SDS011;11110;52.386;16.940;2022-09-20T15:46:27;0.65;;;0.40;;
21890;SDS011;11110;52.386;16.940;2022-09-20T15:48:57;0.73;;;0.50;;
21890;SDS011;11110;52.386;16.940;2022-09-20T15:51:28;0.95;;;0.40;;
21890;SDS011;11110;52.386;16.940;2022-09-20T15:53:57;0.68;;;0.43;;
21890;SDS011;11110;52.386;16.940;2022-09-20T15:56:27;0.90;;;0.90;;
21890;SDS011;11110;52.386;16.940;2022-09-20T15:59:00;1.13;;;0.73;;
21890;SDS011;11110;52.386;16.940;2022-09-20T16:01:31;0.60;;;0.60;;
21890;SDS011;11110;52.386;16.940;2022-09-20T16:04:03;0.60;;;0.57;;
21890;SDS011;11110;52.386;16.940;2022-09-20T16:06:33;1.95;;;1.05;;
21890;SDS011;11110;52.386;16.940;2022-09-20T16:09:02;0.85;;;0.70;;
21890;SDS011;11110;52.386;16.940;2022-09-20T16:11:31;0.60;;;0.60;;
21890;SDS011;11110;52.386;16.940;2022-09-20T16:14:00;0.80;;;0.60;;
21890;SDS011;11110;52.386;16.940;2022-09-20T16:16:30;1.00;;;0.70;;
21890;SDS011;11110;52.386;16.940;2022-09-20T16:19:05;0.65;;;0.50;;
21890;SDS011;11110;52.386;16.940;2022-09-20T16:21:51;0.60;;;0.60;;